ANA583 RJKA-ROAH
Flight info
| Callsign | ANA583 |
|---|---|
| Flight time | 0h 34m |
| Altitude | 24000 |
| Route | YUWAN B597 ONC A582 NHC |
| Aircraft | B789/H-SDE1E2E3FGHIJ2J3J4J5M1RWXY/LB1D1 |
Departure
| Time | 2026-05-07 18:55 |
|---|---|
| Airport | Amami Airport (RJKA) |
Arrival
| Time | 2026-05-07 19:29 |
|---|---|
| Airport | Naha International Airport (ROAH) |
| Time | Latitude | Longitude | Altitude | Speed | Heading |
|---|---|---|---|---|---|
| 2026-05-07 18:44 | 28.43111 | 129.70918 | 55 ft | 0 kts | 297° |
| 2026-05-07 18:49 | 28.43109 | 129.70923 | 53 ft | 3 kts | 297° |
| 2026-05-07 18:49 | 28.43099 | 129.70944 | 56 ft | 4 kts | 298° |
| 2026-05-07 18:49 | 28.43086 | 129.70971 | 60 ft | 4 kts | 302° |
| 2026-05-07 18:50 | 28.43071 | 129.70996 | 55 ft | 4 kts | 308° |
| 2026-05-07 18:50 | 28.43053 | 129.71019 | 57 ft | 4 kts | 314° |
| 2026-05-07 18:50 | 28.43033 | 129.71039 | 55 ft | 4 kts | 323° |
| 2026-05-07 18:50 | 28.43024 | 129.71047 | 53 ft | 1 kts | 324° |
| 2026-05-07 18:52 | 28.43039 | 129.71042 | 54 ft | 10 kts | 348° |
| 2026-05-07 18:52 | 28.43188 | 129.71115 | 57 ft | 37 kts | 26° |
| 2026-05-07 18:52 | 28.43442 | 129.71253 | 55 ft | 38 kts | 25° |
| 2026-05-07 18:53 | 28.43658 | 129.71373 | 55 ft | 31 kts | 26° |
| 2026-05-07 18:53 | 28.43835 | 129.71469 | 56 ft | 25 kts | 25° |
| 2026-05-07 18:53 | 28.43917 | 129.71545 | 55 ft | 8 kts | 80° |
| 2026-05-07 18:53 | 28.43909 | 129.71598 | 55 ft | 8 kts | 102° |
| 2026-05-07 18:54 | 28.43863 | 129.71662 | 56 ft | 16 kts | 161° |
| 2026-05-07 18:54 | 28.43700 | 129.71606 | 55 ft | 42 kts | 206° |
| 2026-05-07 18:54 | 28.43215 | 129.71339 | 56 ft | 120 kts | 206° |
| 2026-05-07 18:54 | 28.42254 | 129.70815 | 398 ft | 163 kts | 205° |
| 2026-05-07 18:55 | 28.41254 | 129.70299 | 1305 ft | 159 kts | 205° |
| 2026-05-07 18:55 | 28.40216 | 129.69814 | 2043 ft | 164 kts | 204° |
| 2026-05-07 18:55 | 28.39136 | 129.69247 | 2637 ft | 178 kts | 211° |
| 2026-05-07 18:55 | 28.38020 | 129.68527 | 3246 ft | 192 kts | 212° |
| 2026-05-07 18:56 | 28.36791 | 129.67810 | 3833 ft | 205 kts | 209° |
| 2026-05-07 18:56 | 28.35475 | 129.67067 | 4400 ft | 217 kts | 212° |
| 2026-05-07 18:56 | 28.34384 | 129.65810 | 4831 ft | 234 kts | 234° |
| 2026-05-07 18:56 | 28.33281 | 129.64370 | 5501 ft | 249 kts | 229° |
| 2026-05-07 18:57 | 28.32076 | 129.62903 | 6336 ft | 257 kts | 229° |
| 2026-05-07 18:57 | 28.30868 | 129.61397 | 7256 ft | 260 kts | 230° |
| 2026-05-07 18:57 | 28.29657 | 129.59858 | 8159 ft | 263 kts | 231° |
| 2026-05-07 18:57 | 28.28425 | 129.58294 | 9067 ft | 267 kts | 231° |
| 2026-05-07 18:58 | 28.27173 | 129.56716 | 9956 ft | 271 kts | 231° |
| 2026-05-07 18:58 | 28.25893 | 129.55102 | 10623 ft | 282 kts | 231° |
| 2026-05-07 18:58 | 28.24541 | 129.53396 | 11135 ft | 298 kts | 231° |
| 2026-05-07 18:58 | 28.23093 | 129.51627 | 11657 ft | 315 kts | 227° |
| 2026-05-07 18:59 | 28.21450 | 129.49893 | 12191 ft | 331 kts | 224° |
| 2026-05-07 18:59 | 28.19684 | 129.48132 | 12694 ft | 346 kts | 224° |
| 2026-05-07 18:59 | 28.17869 | 129.46257 | 13163 ft | 361 kts | 225° |
| 2026-05-07 18:59 | 28.16005 | 129.44272 | 13595 ft | 376 kts | 225° |
| 2026-05-07 19:00 | 28.14050 | 129.42210 | 13973 ft | 391 kts | 225° |
| 2026-05-07 19:00 | 28.12024 | 129.40107 | 14484 ft | 399 kts | 224° |
| 2026-05-07 19:00 | 28.09968 | 129.37973 | 15160 ft | 402 kts | 225° |
| 2026-05-07 19:00 | 28.07906 | 129.35816 | 15894 ft | 404 kts | 225° |
| 2026-05-07 19:01 | 28.05848 | 129.33664 | 16791 ft | 402 kts | 225° |
| 2026-05-07 19:01 | 28.03804 | 129.31533 | 17732 ft | 399 kts | 225° |
| 2026-05-07 19:01 | 28.01765 | 129.29411 | 18608 ft | 396 kts | 225° |
| 2026-05-07 19:01 | 27.99744 | 129.27306 | 19396 ft | 394 kts | 225° |
| 2026-05-07 19:02 | 27.97733 | 129.25211 | 20171 ft | 392 kts | 225° |
| 2026-05-07 19:02 | 27.95731 | 129.23127 | 20971 ft | 390 kts | 225° |
| 2026-05-07 19:02 | 27.93734 | 129.21051 | 21793 ft | 388 kts | 226° |
| 2026-05-07 19:02 | 27.92421 | 129.19687 | 22340 ft | 387 kts | 226° |
| 2026-05-07 19:03 | 27.90444 | 129.17632 | 23072 ft | 387 kts | 226° |
| 2026-05-07 19:03 | 27.88456 | 129.15565 | 23610 ft | 390 kts | 226° |
| 2026-05-07 19:03 | 27.86458 | 129.13491 | 23889 ft | 390 kts | 226° |
| 2026-05-07 19:03 | 27.84453 | 129.11413 | 24028 ft | 393 kts | 226° |
| 2026-05-07 19:04 | 27.82425 | 129.09308 | 24028 ft | 396 kts | 226° |
| 2026-05-07 19:04 | 27.80403 | 129.07230 | 24022 ft | 395 kts | 226° |
| 2026-05-07 19:04 | 27.78343 | 129.05166 | 24017 ft | 395 kts | 225° |
| 2026-05-07 19:04 | 27.76292 | 129.03115 | 24026 ft | 394 kts | 225° |
| 2026-05-07 19:05 | 27.74250 | 129.01048 | 24024 ft | 393 kts | 226° |
| 2026-05-07 19:05 | 27.72217 | 128.98983 | 24027 ft | 393 kts | 226° |
| 2026-05-07 19:05 | 27.70176 | 128.96923 | 24027 ft | 394 kts | 225° |
| 2026-05-07 19:05 | 27.68131 | 128.94866 | 24024 ft | 394 kts | 225° |
| 2026-05-07 19:06 | 27.66083 | 128.92804 | 24026 ft | 395 kts | 225° |
| 2026-05-07 19:06 | 27.61994 | 128.88682 | 24030 ft | 394 kts | 226° |
| 2026-05-07 19:06 | 27.59956 | 128.86632 | 24036 ft | 392 kts | 226° |
| 2026-05-07 19:07 | 27.57921 | 128.84586 | 24026 ft | 391 kts | 226° |
| 2026-05-07 19:07 | 27.55887 | 128.82540 | 23997 ft | 392 kts | 226° |
| 2026-05-07 19:07 | 27.53856 | 128.80499 | 23994 ft | 391 kts | 226° |
| 2026-05-07 19:07 | 27.51829 | 128.78463 | 23995 ft | 392 kts | 226° |
| 2026-05-07 19:08 | 27.49786 | 128.76411 | 23997 ft | 393 kts | 225° |
| 2026-05-07 19:08 | 27.47741 | 128.74360 | 23996 ft | 394 kts | 225° |
| 2026-05-07 19:08 | 27.45692 | 128.72305 | 23991 ft | 396 kts | 225° |
| 2026-05-07 19:08 | 27.43631 | 128.70241 | 23991 ft | 395 kts | 225° |
| 2026-05-07 19:09 | 27.41484 | 128.68301 | 23985 ft | 397 kts | 222° |
| 2026-05-07 19:09 | 27.39297 | 128.66406 | 23983 ft | 397 kts | 222° |
| 2026-05-07 19:09 | 27.37114 | 128.64508 | 23987 ft | 396 kts | 222° |
| 2026-05-07 19:09 | 27.34948 | 128.62609 | 23985 ft | 395 kts | 222° |
| 2026-05-07 19:10 | 27.32778 | 128.60709 | 23984 ft | 394 kts | 222° |
| 2026-05-07 19:10 | 27.30639 | 128.58844 | 23985 ft | 395 kts | 222° |
| 2026-05-07 19:10 | 27.28469 | 128.56954 | 23982 ft | 395 kts | 222° |
| 2026-05-07 19:10 | 27.26287 | 128.55051 | 23996 ft | 399 kts | 222° |
| 2026-05-07 19:11 | 27.24093 | 128.53139 | 24002 ft | 398 kts | 222° |
| 2026-05-07 19:11 | 27.21906 | 128.51235 | 24004 ft | 398 kts | 222° |
| 2026-05-07 19:11 | 27.19728 | 128.49343 | 23718 ft | 391 kts | 222° |
| 2026-05-07 19:11 | 27.17585 | 128.47478 | 23045 ft | 388 kts | 222° |
| 2026-05-07 19:12 | 27.15461 | 128.45629 | 22407 ft | 384 kts | 221° |
| 2026-05-07 19:12 | 27.13359 | 128.43802 | 21835 ft | 381 kts | 221° |
| 2026-05-07 19:12 | 27.11260 | 128.41978 | 21235 ft | 382 kts | 221° |
| 2026-05-07 19:12 | 27.09147 | 128.40142 | 20647 ft | 387 kts | 221° |
| 2026-05-07 19:13 | 27.07005 | 128.38283 | 20053 ft | 391 kts | 221° |
| 2026-05-07 19:13 | 27.04854 | 128.36419 | 19428 ft | 391 kts | 220° |
| 2026-05-07 19:13 | 27.02697 | 128.34550 | 18804 ft | 391 kts | 220° |
| 2026-05-07 19:13 | 27.00541 | 128.32681 | 18125 ft | 392 kts | 220° |
| 2026-05-07 19:14 | 26.98380 | 128.30810 | 17362 ft | 393 kts | 220° |
| 2026-05-07 19:14 | 26.96212 | 128.28935 | 16644 ft | 393 kts | 220° |
| 2026-05-07 19:14 | 26.94055 | 128.27070 | 15932 ft | 389 kts | 220° |
| 2026-05-07 19:14 | 26.91935 | 128.25238 | 15242 ft | 383 kts | 220° |
| 2026-05-07 19:15 | 26.89833 | 128.23421 | 14581 ft | 382 kts | 220° |
| 2026-05-07 19:15 | 26.87721 | 128.21596 | 13920 ft | 383 kts | 220° |
| 2026-05-07 19:15 | 26.85618 | 128.19782 | 13182 ft | 378 kts | 220° |
| 2026-05-07 19:15 | 26.83556 | 128.18005 | 12487 ft | 371 kts | 220° |
| 2026-05-07 19:16 | 26.81530 | 128.16259 | 11839 ft | 363 kts | 220° |
| 2026-05-07 19:16 | 26.79554 | 128.14554 | 11214 ft | 355 kts | 220° |
| 2026-05-07 19:16 | 26.77637 | 128.12903 | 10928 ft | 338 kts | 221° |
| 2026-05-07 19:16 | 26.75831 | 128.11351 | 10796 ft | 318 kts | 221° |
| 2026-05-07 19:17 | 26.74122 | 128.09880 | 10643 ft | 300 kts | 221° |
| 2026-05-07 19:17 | 26.72516 | 128.08494 | 10501 ft | 284 kts | 221° |
| 2026-05-07 19:17 | 26.70989 | 128.07181 | 10359 ft | 270 kts | 221° |
| 2026-05-07 19:17 | 26.69534 | 128.05930 | 10195 ft | 261 kts | 221° |
| 2026-05-07 19:18 | 26.68087 | 128.04680 | 9951 ft | 263 kts | 221° |
| 2026-05-07 19:18 | 26.66894 | 128.03208 | 9626 ft | 260 kts | 242° |
| 2026-05-07 19:18 | 26.66127 | 128.01422 | 9382 ft | 252 kts | 247° |
| 2026-05-07 19:18 | 26.65413 | 127.99621 | 9184 ft | 256 kts | 248° |
| 2026-05-07 19:19 | 26.64677 | 127.97770 | 8955 ft | 258 kts | 247° |
| 2026-05-07 19:19 | 26.63950 | 127.95981 | 8734 ft | 252 kts | 247° |
| 2026-05-07 19:19 | 26.63222 | 127.94198 | 8490 ft | 253 kts | 247° |
| 2026-05-07 19:19 | 26.62492 | 127.92392 | 8272 ft | 257 kts | 247° |
| 2026-05-07 19:20 | 26.61767 | 127.90603 | 8033 ft | 251 kts | 247° |
| 2026-05-07 19:20 | 26.61043 | 127.88819 | 7800 ft | 253 kts | 247° |
| 2026-05-07 19:20 | 26.60312 | 127.87019 | 7548 ft | 255 kts | 247° |
| 2026-05-07 19:20 | 26.59580 | 127.85216 | 7298 ft | 254 kts | 246° |
| 2026-05-07 19:21 | 26.58852 | 127.83426 | 7067 ft | 258 kts | 246° |
| 2026-05-07 19:21 | 26.58092 | 127.81553 | 6824 ft | 269 kts | 246° |
| 2026-05-07 19:21 | 26.57312 | 127.79631 | 6596 ft | 274 kts | 245° |
| 2026-05-07 19:21 | 26.56533 | 127.77723 | 6321 ft | 268 kts | 245° |
| 2026-05-07 19:22 | 26.55757 | 127.75819 | 6059 ft | 271 kts | 245° |
| 2026-05-07 19:22 | 26.54975 | 127.73897 | 5767 ft | 272 kts | 245° |
| 2026-05-07 19:22 | 26.54197 | 127.71986 | 5488 ft | 266 kts | 245° |
| 2026-05-07 19:22 | 26.53429 | 127.70103 | 5206 ft | 268 kts | 245° |
| 2026-05-07 19:23 | 26.52654 | 127.68201 | 4940 ft | 270 kts | 245° |
| 2026-05-07 19:23 | 26.51877 | 127.66297 | 4678 ft | 267 kts | 245° |
| 2026-05-07 19:23 | 26.51114 | 127.64427 | 4392 ft | 265 kts | 245° |
| 2026-05-07 19:23 | 26.50154 | 127.62687 | 4036 ft | 267 kts | 225° |
| 2026-05-07 19:24 | 26.48606 | 127.61592 | 3699 ft | 262 kts | 201° |
| 2026-05-07 19:24 | 26.46798 | 127.61345 | 3380 ft | 265 kts | 179° |
| 2026-05-07 19:24 | 26.44974 | 127.61660 | 3106 ft | 266 kts | 168° |
| 2026-05-07 19:24 | 26.43152 | 127.61961 | 2808 ft | 265 kts | 176° |
| 2026-05-07 19:25 | 26.41309 | 127.62052 | 2507 ft | 265 kts | 179° |
| 2026-05-07 19:25 | 26.39473 | 127.62138 | 2177 ft | 263 kts | 178° |
| 2026-05-07 19:25 | 26.37698 | 127.62235 | 1887 ft | 246 kts | 177° |
| 2026-05-07 19:25 | 26.36053 | 127.62329 | 1579 ft | 230 kts | 177° |
| 2026-05-07 19:26 | 26.34510 | 127.62426 | 1292 ft | 218 kts | 176° |
| 2026-05-07 19:26 | 26.33016 | 127.62515 | 1226 ft | 213 kts | 176° |
| 2026-05-07 19:26 | 26.31528 | 127.62602 | 1216 ft | 215 kts | 177° |
| 2026-05-07 19:26 | 26.30053 | 127.62688 | 1211 ft | 206 kts | 176° |
| 2026-05-07 19:27 | 26.28686 | 127.62768 | 1191 ft | 186 kts | 177° |
| 2026-05-07 19:27 | 26.27490 | 127.62837 | 1180 ft | 159 kts | 177° |
| 2026-05-07 19:27 | 26.26467 | 127.62902 | 1184 ft | 139 kts | 177° |
| 2026-05-07 19:27 | 26.25494 | 127.62959 | 1065 ft | 144 kts | 177° |
| 2026-05-07 19:28 | 26.24500 | 127.63017 | 849 ft | 141 kts | 176° |
| 2026-05-07 19:28 | 26.23521 | 127.63073 | 674 ft | 141 kts | 176° |
| 2026-05-07 19:28 | 26.22544 | 127.63125 | 476 ft | 140 kts | 176° |
| 2026-05-07 19:28 | 26.21582 | 127.63176 | 275 ft | 140 kts | 175° |
| 2026-05-07 19:29 | 26.20607 | 127.63224 | 88 ft | 141 kts | 176° |
| 2026-05-07 19:29 | 26.19633 | 127.63274 | 32 ft | 139 kts | 176° |
| 2026-05-07 19:29 | 26.18773 | 127.63315 | 23 ft | 91 kts | 178° |
| 2026-05-07 19:29 | 26.18450 | 127.63395 | 26 ft | 31 kts | 149° |
| 2026-05-07 19:30 | 26.18371 | 127.63494 | 24 ft | 7 kts | 74° |
| 2026-05-07 19:30 | 26.18424 | 127.63517 | 25 ft | 11 kts | 358° |
| 2026-05-07 19:30 | 26.18513 | 127.63515 | 25 ft | 16 kts | 359° |
| 2026-05-07 19:30 | 26.18636 | 127.63510 | 27 ft | 21 kts | 357° |
| 2026-05-07 19:31 | 26.18796 | 127.63502 | 24 ft | 24 kts | 357° |
| 2026-05-07 19:31 | 26.18970 | 127.63494 | 24 ft | 26 kts | 358° |
| 2026-05-07 19:31 | 26.19152 | 127.63485 | 25 ft | 27 kts | 358° |
| 2026-05-07 19:31 | 26.19343 | 127.63476 | 25 ft | 28 kts | 358° |
| 2026-05-07 19:32 | 26.19540 | 127.63467 | 26 ft | 29 kts | 357° |
| 2026-05-07 19:32 | 26.19745 | 127.63457 | 26 ft | 30 kts | 358° |
| 2026-05-07 19:32 | 26.19956 | 127.63446 | 25 ft | 31 kts | 357° |
| 2026-05-07 19:32 | 26.20144 | 127.63438 | 25 ft | 18 kts | 358° |
| 2026-05-07 19:33 | 26.20269 | 127.63441 | 24 ft | 16 kts | 21° |
| 2026-05-07 19:33 | 26.20302 | 127.63506 | 22 ft | 10 kts | 86° |
| 2026-05-07 19:33 | 26.20307 | 127.63634 | 26 ft | 24 kts | 88° |
| 2026-05-07 19:33 | 26.20314 | 127.63829 | 24 ft | 26 kts | 87° |
| 2026-05-07 19:34 | 26.20322 | 127.64032 | 26 ft | 27 kts | 88° |
| 2026-05-07 19:34 | 26.20330 | 127.64231 | 24 ft | 25 kts | 87° |
| 2026-05-07 19:34 | 26.20337 | 127.64424 | 23 ft | 25 kts | 87° |
| 2026-05-07 19:34 | 26.20344 | 127.64604 | 23 ft | 20 kts | 86° |
| 2026-05-07 19:35 | 26.20426 | 127.64696 | 27 ft | 18 kts | 29° |
| 2026-05-07 19:35 | 26.20476 | 127.64727 | 26 ft | 2 kts | 32° |
| 2026-05-07 19:35 | 26.20484 | 127.64736 | 26 ft | 0 kts | 51° |
| 2026-05-07 19:35 | 26.20488 | 127.64757 | 26 ft | 6 kts | 81° |
| 2026-05-07 19:36 | 26.20491 | 127.64798 | 26 ft | 5 kts | 86° |
| 2026-05-07 19:36 | 26.20492 | 127.64830 | 26 ft | 0 kts | 88° |
| 2026-05-07 19:43 | 26.20492 | 127.64810 | 30 ft | 4 kts | 88° |
| 2026-05-07 19:44 | 26.20490 | 127.64786 | 27 ft | 4 kts | 75° |
| 2026-05-07 19:44 | 26.20481 | 127.64764 | 28 ft | 4 kts | 39° |
| 2026-05-07 19:44 | 26.20460 | 127.64754 | 25 ft | 4 kts | 4° |
| 2026-05-07 19:44 | 26.20435 | 127.64754 | 29 ft | 4 kts | 358° |
| 2026-05-07 19:45 | 26.20411 | 127.64755 | 26 ft | 1 kts | 357° |
| 2026-05-07 19:45 | 26.20410 | 127.64755 | 26 ft | 0 kts | 357° |
| 2026-05-07 19:46 | 26.20412 | 127.64755 | 23 ft | 3 kts | 357° |
| 2026-05-07 19:46 | 26.20448 | 127.64753 | 26 ft | 7 kts | 358° |
| 2026-05-07 19:47 | 26.20507 | 127.64750 | 25 ft | 10 kts | 358° |
| 2026-05-07 19:47 | 26.20626 | 127.64745 | 22 ft | 26 kts | 358° |
| 2026-05-07 19:47 | 26.20817 | 127.64736 | 24 ft | 24 kts | 358° |
| 2026-05-07 19:47 | 26.20900 | 127.64653 | 23 ft | 17 kts | 271° |
| 2026-05-07 19:48 | 26.20876 | 127.64534 | 29 ft | 11 kts | 214° |
| 2026-05-07 19:48 | 26.20835 | 127.64529 | 26 ft | 0 kts | 178° |
| 2026-05-07 19:48 | 26.20732 | 127.64533 | 27 ft | 55 kts | 177° |
| 2026-05-07 19:49 | 26.20016 | 127.64567 | 26 ft | 148 kts | 177° |
| 2026-05-07 19:49 | 26.18876 | 127.64614 | 622 ft | 164 kts | 176° |
| 2026-05-07 19:49 | 26.17780 | 127.64659 | 1284 ft | 163 kts | 178° |
| 2026-05-07 19:49 | 26.16585 | 127.64728 | 1607 ft | 182 kts | 178° |
| 2026-05-07 19:50 | 26.15261 | 127.64795 | 1982 ft | 198 kts | 178° |
| 2026-05-07 19:50 | 26.13827 | 127.64857 | 2361 ft | 214 kts | 178° |
| 2026-05-07 19:50 | 26.12294 | 127.64863 | 2738 ft | 228 kts | 186° |
| 2026-05-07 19:50 | 26.10730 | 127.64339 | 3178 ft | 238 kts | 199° |
| 2026-05-07 19:51 | 26.09138 | 127.63730 | 3710 ft | 249 kts | 199° |
| 2026-05-07 19:51 | 26.08003 | 127.63315 | 4112 ft | 258 kts | 198° |
| 2026-05-07 19:51 | 26.06276 | 127.62702 | 4901 ft | 262 kts | 198° |
| 2026-05-07 19:51 | 26.04530 | 127.62077 | 5731 ft | 265 kts | 198° |
| 2026-05-07 19:52 | 26.02769 | 127.61441 | 6545 ft | 268 kts | 199° |
| 2026-05-07 19:52 | 26.01014 | 127.60808 | 7308 ft | 271 kts | 199° |
| 2026-05-07 19:52 | 25.99212 | 127.60159 | 8100 ft | 274 kts | 200° |
| 2026-05-07 19:52 | 25.97393 | 127.59499 | 8876 ft | 276 kts | 201° |
| 2026-05-07 19:53 | 25.95760 | 127.58396 | 9509 ft | 277 kts | 226° |
| 2026-05-07 19:53 | 25.94490 | 127.56793 | 10323 ft | 278 kts | 231° |
| 2026-05-07 19:53 | 25.93251 | 127.55072 | 10763 ft | 293 kts | 233° |
| 2026-05-07 19:53 | 25.91952 | 127.53250 | 11160 ft | 309 kts | 232° |
| 2026-05-07 19:54 | 25.90561 | 127.51357 | 11570 ft | 324 kts | 232° |
| 2026-05-07 19:54 | 25.89094 | 127.49382 | 11965 ft | 339 kts | 232° |
| 2026-05-07 19:54 | 25.87567 | 127.47309 | 12338 ft | 354 kts | 232° |
| 2026-05-07 19:54 | 25.85980 | 127.45143 | 12679 ft | 369 kts | 232° |
| 2026-05-07 19:55 | 25.84322 | 127.42886 | 12978 ft | 384 kts | 232° |
| 2026-05-07 19:55 | 25.82747 | 127.40438 | 13210 ft | 397 kts | 243° |
| 2026-05-07 19:55 | 25.81805 | 127.37551 | 13790 ft | 400 kts | 257° |
| 2026-05-07 19:55 | 25.81535 | 127.34479 | 14340 ft | 403 kts | 271° |
| 2026-05-07 19:56 | 25.81801 | 127.31376 | 14908 ft | 405 kts | 276° |
| 2026-05-07 19:56 | 25.82120 | 127.28256 | 15498 ft | 408 kts | 276° |
| 2026-05-07 19:56 | 25.82425 | 127.25117 | 16102 ft | 410 kts | 275° |
| 2026-05-07 19:56 | 25.82705 | 127.21975 | 16853 ft | 408 kts | 274° |
| 2026-05-07 19:57 | 25.82985 | 127.18855 | 17638 ft | 405 kts | 274° |
| 2026-05-07 19:57 | 25.83275 | 127.15759 | 18373 ft | 403 kts | 275° |
| 2026-05-07 19:57 | 25.83565 | 127.12673 | 18986 ft | 401 kts | 275° |
| 2026-05-07 19:57 | 25.83847 | 127.09595 | 19590 ft | 400 kts | 275° |
| 2026-05-07 19:58 | 25.84126 | 127.06529 | 20202 ft | 399 kts | 275° |
| 2026-05-07 19:58 | 25.84406 | 127.03472 | 20813 ft | 398 kts | 275° |
| 2026-05-07 19:58 | 25.84686 | 127.00424 | 21410 ft | 396 kts | 275° |
| 2026-05-07 19:58 | 25.84963 | 126.97385 | 22035 ft | 395 kts | 275° |
| 2026-05-07 19:59 | 25.85238 | 126.94355 | 22650 ft | 394 kts | 275° |
| 2026-05-07 19:59 | 25.85512 | 126.91336 | 23231 ft | 393 kts | 275° |
| 2026-05-07 19:59 | 25.85786 | 126.88308 | 23660 ft | 396 kts | 275° |
| 2026-05-07 19:59 | 25.86062 | 126.85251 | 23895 ft | 399 kts | 275° |
| 2026-05-07 20:00 | 25.86339 | 126.82181 | 23999 ft | 400 kts | 275° |
| 2026-05-07 20:00 | 25.86616 | 126.79099 | 24007 ft | 401 kts | 275° |
| 2026-05-07 20:00 | 25.86833 | 126.76027 | 24005 ft | 398 kts | 270° |
| 2026-05-07 20:00 | 25.86584 | 126.72963 | 24009 ft | 399 kts | 261° |
| 2026-05-07 20:01 | 25.85835 | 126.69990 | 24005 ft | 401 kts | 250° |
| 2026-05-07 20:01 | 25.84609 | 126.67208 | 24023 ft | 402 kts | 242° |
| 2026-05-07 20:01 | 25.83216 | 126.64516 | 24024 ft | 402 kts | 242° |
| 2026-05-07 20:01 | 25.81826 | 126.61824 | 24010 ft | 402 kts | 242° |
| 2026-05-07 20:02 | 25.80448 | 126.59133 | 24010 ft | 401 kts | 242° |
| 2026-05-07 20:02 | 25.79072 | 126.56444 | 24007 ft | 401 kts | 242° |
| 2026-05-07 20:02 | 25.77691 | 126.53759 | 24012 ft | 401 kts | 242° |
| 2026-05-07 20:02 | 25.76310 | 126.51079 | 24007 ft | 401 kts | 242° |
| 2026-05-07 20:03 | 25.74929 | 126.48397 | 24005 ft | 401 kts | 242° |
| 2026-05-07 20:03 | 25.73548 | 126.45712 | 24017 ft | 400 kts | 242° |
| 2026-05-07 20:03 | 25.72167 | 126.43031 | 24019 ft | 400 kts | 242° |
| 2026-05-07 20:03 | 25.70783 | 126.40348 | 24019 ft | 400 kts | 242° |
| 2026-05-07 20:04 | 25.69421 | 126.37708 | 24018 ft | 400 kts | 242° |
| 2026-05-07 20:04 | 25.68037 | 126.35026 | 24018 ft | 400 kts | 242° |
| 2026-05-07 20:04 | 25.66653 | 126.32347 | 24018 ft | 400 kts | 242° |
| 2026-05-07 20:04 | 25.65269 | 126.29669 | 24017 ft | 400 kts | 242° |
| 2026-05-07 20:05 | 25.63886 | 126.26992 | 24016 ft | 400 kts | 242° |
| 2026-05-07 20:05 | 25.62500 | 126.24315 | 24010 ft | 401 kts | 242° |
| 2026-05-07 20:05 | 25.61113 | 126.21636 | 24015 ft | 402 kts | 242° |
| 2026-05-07 20:05 | 25.59720 | 126.18945 | 24014 ft | 402 kts | 242° |
| 2026-05-07 20:06 | 25.58327 | 126.16258 | 24004 ft | 402 kts | 242° |
| 2026-05-07 20:06 | 25.56938 | 126.13580 | 24005 ft | 401 kts | 242° |
| 2026-05-07 20:06 | 25.55550 | 126.10904 | 24006 ft | 400 kts | 242° |
| 2026-05-07 20:06 | 25.54163 | 126.08232 | 24004 ft | 400 kts | 242° |
| 2026-05-07 20:07 | 25.52777 | 126.05565 | 24003 ft | 399 kts | 242° |
| 2026-05-07 20:07 | 25.51391 | 126.02898 | 24005 ft | 400 kts | 242° |
| 2026-05-07 20:07 | 25.50002 | 126.00228 | 24007 ft | 401 kts | 242° |
| 2026-05-07 20:07 | 25.48622 | 125.97578 | 23729 ft | 394 kts | 242° |
| 2026-05-07 20:08 | 25.47275 | 125.94992 | 23066 ft | 381 kts | 242° |
| 2026-05-07 20:08 | 25.45954 | 125.92455 | 22437 ft | 381 kts | 242° |
| 2026-05-07 20:08 | 25.44623 | 125.89897 | 21879 ft | 387 kts | 242° |
| 2026-05-07 20:08 | 25.43271 | 125.87304 | 21284 ft | 392 kts | 241° |
| 2026-05-07 20:09 | 25.41902 | 125.84685 | 20669 ft | 393 kts | 241° |
| 2026-05-07 20:09 | 25.40535 | 125.82071 | 20068 ft | 392 kts | 241° |
| 2026-05-07 20:09 | 25.39172 | 125.79463 | 19448 ft | 391 kts | 241° |
| 2026-05-07 20:10 | 25.36462 | 125.74249 | 18132 ft | 390 kts | 243° |
| 2026-05-07 20:10 | 25.35473 | 125.71457 | 17364 ft | 391 kts | 253° |
| 2026-05-07 20:10 | 25.34975 | 125.68508 | 16644 ft | 391 kts | 264° |
| 2026-05-07 20:10 | 25.34804 | 125.65515 | 15988 ft | 390 kts | 266° |
| 2026-05-07 20:11 | 25.34643 | 125.62541 | 15326 ft | 384 kts | 266° |
| 2026-05-07 20:11 | 25.34478 | 125.59620 | 14687 ft | 380 kts | 266° |
| 2026-05-07 20:11 | 25.34307 | 125.56705 | 14055 ft | 380 kts | 266° |
| 2026-05-07 20:11 | 25.34138 | 125.53782 | 13387 ft | 381 kts | 266° |
| 2026-05-07 20:12 | 25.33973 | 125.50883 | 12709 ft | 374 kts | 266° |
| 2026-05-07 20:12 | 25.33810 | 125.48038 | 12080 ft | 367 kts | 266° |
| 2026-05-07 20:12 | 25.33647 | 125.45255 | 11481 ft | 359 kts | 266° |
| 2026-05-07 20:12 | 25.33488 | 125.42537 | 11032 ft | 348 kts | 266° |
| 2026-05-07 20:13 | 25.33337 | 125.39940 | 10887 ft | 329 kts | 266° |
| 2026-05-07 20:13 | 25.33194 | 125.37489 | 10751 ft | 311 kts | 266° |
| 2026-05-07 20:13 | 25.33057 | 125.35171 | 10608 ft | 294 kts | 266° |
| 2026-05-07 20:13 | 25.32928 | 125.32971 | 10483 ft | 280 kts | 265° |
| 2026-05-07 20:14 | 25.32804 | 125.30879 | 10344 ft | 266 kts | 266° |
| 2026-05-07 20:14 | 25.32684 | 125.28846 | 10228 ft | 266 kts | 265° |
| 2026-05-07 20:14 | 25.32561 | 125.26776 | 10004 ft | 272 kts | 265° |
| 2026-05-07 20:14 | 25.32439 | 125.24725 | 9772 ft | 265 kts | 265° |
| 2026-05-07 20:15 | 25.32317 | 125.22688 | 9527 ft | 267 kts | 265° |
| 2026-05-07 20:15 | 25.32194 | 125.20629 | 9291 ft | 269 kts | 265° |
| 2026-05-07 20:15 | 25.32071 | 125.18575 | 9047 ft | 264 kts | 265° |
| 2026-05-07 20:15 | 25.31950 | 125.16559 | 8805 ft | 263 kts | 265° |
| 2026-05-07 20:16 | 25.31828 | 125.14531 | 8580 ft | 266 kts | 265° |
| 2026-05-07 20:16 | 25.31705 | 125.12490 | 8345 ft | 265 kts | 265° |
| 2026-05-07 20:16 | 25.31584 | 125.10484 | 8098 ft | 259 kts | 265° |
| 2026-05-07 20:16 | 25.31463 | 125.08487 | 7867 ft | 262 kts | 265° |
| 2026-05-07 20:17 | 25.31314 | 125.06479 | 7619 ft | 262 kts | 261° |
| 2026-05-07 20:17 | 25.30588 | 125.04649 | 7278 ft | 260 kts | 235° |
| 2026-05-07 20:17 | 25.29261 | 125.03344 | 6991 ft | 259 kts | 210° |
| 2026-05-07 20:17 | 25.27538 | 125.02770 | 6747 ft | 263 kts | 186° |
| 2026-05-07 20:18 | 25.25717 | 125.03020 | 6537 ft | 265 kts | 168° |
| 2026-05-07 20:18 | 25.23928 | 125.03512 | 6375 ft | 266 kts | 167° |
| 2026-05-07 20:18 | 25.22178 | 125.03994 | 6205 ft | 250 kts | 168° |
| 2026-05-07 20:18 | 25.20572 | 125.04413 | 6026 ft | 231 kts | 169° |
| 2026-05-07 20:19 | 25.19066 | 125.04800 | 5817 ft | 215 kts | 169° |
| 2026-05-07 20:19 | 25.17659 | 125.05165 | 5593 ft | 201 kts | 169° |
| 2026-05-07 20:19 | 25.16335 | 125.05510 | 5392 ft | 190 kts | 169° |
| 2026-05-07 20:19 | 25.15078 | 125.05837 | 5199 ft | 181 kts | 169° |
| 2026-05-07 20:20 | 25.13875 | 125.06150 | 5017 ft | 177 kts | 169° |
| 2026-05-07 20:20 | 25.12665 | 125.06464 | 4863 ft | 180 kts | 169° |
| 2026-05-07 20:20 | 25.11427 | 125.06785 | 4724 ft | 185 kts | 169° |
| 2026-05-07 20:20 | 25.10163 | 125.07114 | 4563 ft | 185 kts | 168° |
| 2026-05-07 20:21 | 25.08938 | 125.07435 | 4393 ft | 181 kts | 169° |
| 2026-05-07 20:21 | 25.07696 | 125.07757 | 4231 ft | 185 kts | 169° |
| 2026-05-07 20:21 | 25.06447 | 125.08082 | 4071 ft | 184 kts | 168° |
| 2026-05-07 20:21 | 25.05203 | 125.08406 | 3908 ft | 183 kts | 168° |
| 2026-05-07 20:22 | 25.03998 | 125.08720 | 3733 ft | 177 kts | 168° |
| 2026-05-07 20:22 | 25.02781 | 125.09034 | 3586 ft | 181 kts | 168° |
| 2026-05-07 20:22 | 25.01552 | 125.09354 | 3425 ft | 179 kts | 168° |
| 2026-05-07 20:22 | 25.00376 | 125.09661 | 3230 ft | 171 kts | 168° |
| 2026-05-07 20:23 | 24.99239 | 125.09953 | 2972 ft | 159 kts | 168° |
| 2026-05-07 20:23 | 24.98221 | 125.10231 | 2766 ft | 145 kts | 167° |
| 2026-05-07 20:23 | 24.97252 | 125.10497 | 2587 ft | 142 kts | 167° |
| 2026-05-07 20:23 | 24.96294 | 125.10762 | 2400 ft | 141 kts | 167° |
| 2026-05-07 20:24 | 24.95343 | 125.11022 | 2226 ft | 141 kts | 167° |
| 2026-05-07 20:24 | 24.94399 | 125.11283 | 2036 ft | 139 kts | 167° |
| 2026-05-07 20:24 | 24.93452 | 125.11540 | 1861 ft | 141 kts | 167° |
| 2026-05-07 20:24 | 24.92499 | 125.11803 | 1668 ft | 141 kts | 166° |
| 2026-05-07 20:25 | 24.91542 | 125.12064 | 1484 ft | 141 kts | 167° |
| 2026-05-07 20:25 | 24.90608 | 125.12326 | 1300 ft | 139 kts | 166° |
| 2026-05-07 20:25 | 24.89652 | 125.12590 | 1134 ft | 142 kts | 166° |
| 2026-05-07 20:25 | 24.88709 | 125.12848 | 938 ft | 137 kts | 166° |
| 2026-05-07 20:26 | 24.87768 | 125.13101 | 779 ft | 143 kts | 166° |
| 2026-05-07 20:26 | 24.86821 | 125.13352 | 610 ft | 138 kts | 165° |
| 2026-05-07 20:26 | 24.85880 | 125.13619 | 408 ft | 140 kts | 164° |
| 2026-05-07 20:26 | 24.84935 | 125.13877 | 226 ft | 141 kts | 164° |
| 2026-05-07 20:27 | 24.84005 | 125.14134 | 49 ft | 135 kts | 164° |
| 2026-05-07 20:27 | 24.83177 | 125.14362 | 30 ft | 97 kts | 166° |
| 2026-05-07 20:27 | 24.82779 | 125.14471 | 37 ft | 31 kts | 166° |
| 2026-05-07 20:27 | 24.82708 | 125.14514 | 38 ft | 8 kts | 109° |
| 2026-05-07 20:28 | 24.82712 | 125.14588 | 37 ft | 11 kts | 78° |
| 2026-05-07 20:28 | 24.82733 | 125.14653 | 36 ft | 6 kts | 47° |
| 2026-05-07 20:28 | 24.82774 | 125.14684 | 36 ft | 10 kts | 46° |
| 2026-05-07 20:28 | 24.82802 | 125.14772 | 37 ft | 13 kts | 75° |
| 2026-05-07 20:29 | 24.82808 | 125.14799 | 37 ft | 0 kts | 75° |
| 2026-05-07 20:34 | 24.82806 | 125.14790 | 37 ft | 4 kts | 76° |
| 2026-05-07 20:34 | 24.82800 | 125.14762 | 37 ft | 4 kts | 78° |
| 2026-05-07 20:34 | 24.82796 | 125.14733 | 36 ft | 4 kts | 83° |
| 2026-05-07 20:34 | 24.82791 | 125.14704 | 35 ft | 4 kts | 68° |
| 2026-05-07 20:35 | 24.82779 | 125.14686 | 36 ft | 4 kts | 37° |
| 2026-05-07 20:35 | 24.82760 | 125.14676 | 36 ft | 4 kts | 359° |
| 2026-05-07 20:35 | 24.82725 | 125.14683 | 37 ft | 0 kts | 346° |
| 2026-05-07 20:37 | 24.82727 | 125.14683 | 37 ft | 2 kts | 346° |
| 2026-05-07 20:37 | 24.82741 | 125.14679 | 37 ft | 0 kts | 347° |
| 2026-05-07 20:38 | 24.82765 | 125.14672 | 36 ft | 7 kts | 346° |
| 2026-05-07 20:38 | 24.82855 | 125.14647 | 34 ft | 18 kts | 346° |
| 2026-05-07 20:39 | 24.82996 | 125.14609 | 30 ft | 23 kts | 346° |
| 2026-05-07 20:39 | 24.83127 | 125.14573 | 29 ft | 25 kts | 346° |
| 2026-05-07 20:39 | 24.83302 | 125.14525 | 28 ft | 27 kts | 346° |
| 2026-05-07 20:39 | 24.83487 | 125.14475 | 27 ft | 28 kts | 346° |
| 2026-05-07 20:40 | 24.83679 | 125.14423 | 27 ft | 29 kts | 346° |
| 2026-05-07 20:40 | 24.83880 | 125.14370 | 26 ft | 30 kts | 346° |
| 2026-05-07 20:40 | 24.83972 | 125.14341 | 29 ft | 11 kts | 341° |
| 2026-05-07 20:40 | 24.84017 | 125.14282 | 26 ft | 10 kts | 277° |
| 2026-05-07 20:41 | 24.84015 | 125.14254 | 27 ft | 0 kts | 259° |
| 2026-05-07 20:41 | 24.84013 | 125.14244 | 27 ft | 5 kts | 259° |
| 2026-05-07 20:41 | 24.83999 | 125.14181 | 29 ft | 9 kts | 251° |
| 2026-05-07 20:41 | 24.83954 | 125.14152 | 29 ft | 8 kts | 173° |
| 2026-05-07 20:42 | 24.83948 | 125.14153 | 29 ft | 1 kts | 169° |
| 2026-05-07 20:42 | 24.83814 | 125.14188 | 30 ft | 53 kts | 166° |
| 2026-05-07 20:42 | 24.83133 | 125.14375 | 30 ft | 146 kts | 166° |
| 2026-05-07 20:42 | 24.82000 | 125.14700 | 495 ft | 173 kts | 161° |
| 2026-05-07 20:43 | 24.80834 | 125.15038 | 1041 ft | 180 kts | 169° |
| 2026-05-07 20:43 | 24.79572 | 125.14873 | 1511 ft | 193 kts | 204° |
| 2026-05-07 20:43 | 24.78530 | 125.13832 | 1846 ft | 212 kts | 228° |
| 2026-05-07 20:43 | 24.77442 | 125.12619 | 2247 ft | 232 kts | 220° |
| 2026-05-07 20:44 | 24.76077 | 125.11572 | 2776 ft | 247 kts | 209° |
| 2026-05-07 20:44 | 24.74444 | 125.10878 | 3494 ft | 255 kts | 196° |
| 2026-05-07 20:44 | 24.72710 | 125.10413 | 4360 ft | 257 kts | 195° |
| 2026-05-07 20:44 | 24.71130 | 125.09484 | 4996 ft | 264 kts | 225° |
| 2026-05-07 20:45 | 24.70123 | 125.07809 | 5847 ft | 265 kts | 247° |
| 2026-05-07 20:45 | 24.69494 | 125.05907 | 6705 ft | 266 kts | 250° |
| 2026-05-07 20:45 | 24.68845 | 125.03996 | 7482 ft | 269 kts | 249° |
| 2026-05-07 20:45 | 24.68160 | 125.02070 | 8262 ft | 272 kts | 248° |
| 2026-05-07 20:46 | 24.67474 | 125.00149 | 9061 ft | 275 kts | 249° |
| 2026-05-07 20:46 | 24.66778 | 124.98179 | 9853 ft | 279 kts | 249° |
| 2026-05-07 20:46 | 24.66062 | 124.96142 | 10468 ft | 289 kts | 249° |
| 2026-05-07 20:46 | 24.65326 | 124.94055 | 10874 ft | 304 kts | 249° |
| 2026-05-07 20:47 | 24.64540 | 124.91834 | 11293 ft | 320 kts | 249° |
| 2026-05-07 20:47 | 24.63715 | 124.89502 | 11719 ft | 335 kts | 249° |
| 2026-05-07 20:47 | 24.62853 | 124.87066 | 12122 ft | 350 kts | 249° |
| 2026-05-07 20:47 | 24.61952 | 124.84520 | 12487 ft | 365 kts | 249° |
| 2026-05-07 20:48 | 24.61015 | 124.81875 | 12819 ft | 380 kts | 249° |
| 2026-05-07 20:48 | 24.60153 | 124.79075 | 13058 ft | 394 kts | 255° |
| 2026-05-07 20:48 | 24.59391 | 124.76143 | 13506 ft | 403 kts | 254° |
| 2026-05-07 20:48 | 24.58587 | 124.73166 | 13944 ft | 409 kts | 253° |
| 2026-05-07 20:49 | 24.57770 | 124.70157 | 14008 ft | 411 kts | 253° |
| 2026-05-07 20:49 | 24.56966 | 124.67156 | 14012 ft | 409 kts | 254° |
| 2026-05-07 20:49 | 24.56164 | 124.64151 | 14010 ft | 409 kts | 254° |
| 2026-05-07 20:49 | 24.55358 | 124.61154 | 14013 ft | 409 kts | 253° |
| 2026-05-07 20:50 | 24.54550 | 124.58158 | 14012 ft | 409 kts | 253° |
| 2026-05-07 20:50 | 24.53741 | 124.55160 | 14009 ft | 410 kts | 254° |
| 2026-05-07 20:50 | 24.52933 | 124.52160 | 14004 ft | 409 kts | 253° |
| 2026-05-07 20:50 | 24.52123 | 124.49165 | 14004 ft | 409 kts | 253° |
| 2026-05-07 20:51 | 24.50982 | 124.46307 | 13978 ft | 410 kts | 240° |
| 2026-05-07 20:51 | 24.49350 | 124.43823 | 13791 ft | 381 kts | 230° |
| 2026-05-07 20:51 | 24.47490 | 124.41931 | 12411 ft | 356 kts | 218° |
| 2026-05-07 20:51 | 24.45497 | 124.40404 | 10865 ft | 344 kts | 216° |
| 2026-05-07 20:52 | 24.43575 | 124.38917 | 9485 ft | 332 kts | 217° |
| 2026-05-07 20:52 | 24.41746 | 124.37456 | 8129 ft | 319 kts | 217° |
| 2026-05-07 20:52 | 24.39932 | 124.36004 | 7444 ft | 320 kts | 217° |
| 2026-05-07 20:52 | 24.38173 | 124.34616 | 7254 ft | 302 kts | 217° |
| 2026-05-07 20:53 | 24.36510 | 124.33307 | 7048 ft | 288 kts | 217° |
| 2026-05-07 20:53 | 24.34930 | 124.32060 | 6806 ft | 266 kts | 217° |
| 2026-05-07 20:53 | 24.33498 | 124.30926 | 6656 ft | 244 kts | 217° |
| 2026-05-07 20:53 | 24.32178 | 124.29883 | 6430 ft | 224 kts | 217° |
| 2026-05-07 20:54 | 24.30975 | 124.28934 | 6213 ft | 209 kts | 217° |
| 2026-05-07 20:54 | 24.29822 | 124.28022 | 6001 ft | 195 kts | 217° |
| 2026-05-07 20:54 | 24.28723 | 124.27155 | 5823 ft | 197 kts | 216° |
| 2026-05-07 20:54 | 24.27610 | 124.26276 | 5653 ft | 201 kts | 217° |
| 2026-05-07 20:55 | 24.26505 | 124.25403 | 5459 ft | 194 kts | 217° |
| 2026-05-07 20:55 | 24.25387 | 124.24520 | 5285 ft | 202 kts | 216° |
| 2026-05-07 20:55 | 24.24268 | 124.23641 | 5092 ft | 192 kts | 216° |
| 2026-05-07 20:55 | 24.23177 | 124.22780 | 4917 ft | 196 kts | 216° |
| 2026-05-07 20:56 | 24.22064 | 124.21902 | 4731 ft | 198 kts | 216° |
| 2026-05-07 20:56 | 24.20989 | 124.20960 | 4488 ft | 199 kts | 226° |
| 2026-05-07 20:56 | 24.20486 | 124.19596 | 4181 ft | 191 kts | 261° |
| 2026-05-07 20:56 | 24.20698 | 124.18212 | 3963 ft | 182 kts | 291° |
| 2026-05-07 20:57 | 24.21377 | 124.17122 | 3847 ft | 163 kts | 304° |
| 2026-05-07 20:57 | 24.22014 | 124.16169 | 3720 ft | 147 kts | 303° |
| 2026-05-07 20:57 | 24.22592 | 124.15276 | 3606 ft | 145 kts | 303° |
| 2026-05-07 20:57 | 24.23187 | 124.14357 | 3514 ft | 150 kts | 303° |
| 2026-05-07 20:58 | 24.23860 | 124.13476 | 3347 ft | 155 kts | 317° |
| 2026-05-07 20:58 | 24.24914 | 124.13224 | 2678 ft | 163 kts | 8° |
| 2026-05-07 20:58 | 24.25902 | 124.13750 | 2274 ft | 153 kts | 34° |
| 2026-05-07 20:58 | 24.26763 | 124.14391 | 2070 ft | 148 kts | 36° |
| 2026-05-07 20:59 | 24.27609 | 124.15041 | 1990 ft | 148 kts | 37° |
| 2026-05-07 20:59 | 24.28449 | 124.15705 | 2000 ft | 151 kts | 37° |
| 2026-05-07 20:59 | 24.29307 | 124.16377 | 1991 ft | 154 kts | 37° |
| 2026-05-07 20:59 | 24.30160 | 124.17053 | 2001 ft | 153 kts | 37° |
| 2026-05-07 21:00 | 24.31027 | 124.17733 | 1956 ft | 154 kts | 37° |
| 2026-05-07 21:00 | 24.31914 | 124.18432 | 1766 ft | 157 kts | 37° |
| 2026-05-07 21:00 | 24.32784 | 124.19117 | 1570 ft | 155 kts | 38° |
| 2026-05-07 21:00 | 24.33659 | 124.19808 | 1359 ft | 153 kts | 37° |
| 2026-05-07 21:01 | 24.34528 | 124.20477 | 1162 ft | 152 kts | 39° |
| 2026-05-07 21:01 | 24.35388 | 124.21144 | 967 ft | 149 kts | 38° |
| 2026-05-07 21:01 | 24.36228 | 124.21810 | 795 ft | 150 kts | 38° |
| 2026-05-07 21:01 | 24.37073 | 124.22476 | 595 ft | 149 kts | 38° |
| 2026-05-07 21:02 | 24.37906 | 124.23133 | 390 ft | 147 kts | 37° |
| 2026-05-07 21:02 | 24.38728 | 124.23782 | 211 ft | 146 kts | 38° |
| 2026-05-07 21:02 | 24.39538 | 124.24428 | 111 ft | 136 kts | 36° |
| 2026-05-07 21:02 | 24.40033 | 124.24817 | 113 ft | 35 kts | 37° |
| 2026-05-07 21:03 | 24.40152 | 124.24911 | 113 ft | 23 kts | 36° |
| 2026-05-07 21:03 | 24.40252 | 124.24990 | 119 ft | 13 kts | 36° |
| 2026-05-07 21:03 | 24.40324 | 124.25047 | 120 ft | 14 kts | 38° |
| 2026-05-07 21:03 | 24.40341 | 124.25118 | 118 ft | 8 kts | 115° |
| 2026-05-07 21:04 | 24.40312 | 124.25171 | 117 ft | 8 kts | 125° |
| 2026-05-07 21:04 | 24.40248 | 124.25201 | 120 ft | 14 kts | 192° |
| 2026-05-07 21:04 | 24.40147 | 124.25134 | 117 ft | 19 kts | 215° |
| 2026-05-07 21:04 | 24.40032 | 124.25044 | 115 ft | 22 kts | 215° |
| 2026-05-07 21:05 | 24.39900 | 124.24942 | 111 ft | 24 kts | 215° |
| 2026-05-07 21:05 | 24.39756 | 124.24825 | 109 ft | 27 kts | 214° |
| 2026-05-07 21:05 | 24.39605 | 124.24705 | 111 ft | 26 kts | 217° |
| 2026-05-07 21:05 | 24.39475 | 124.24605 | 117 ft | 20 kts | 214° |
| 2026-05-07 21:06 | 24.39360 | 124.24518 | 118 ft | 20 kts | 214° |
| 2026-05-07 21:06 | 24.39273 | 124.24469 | 120 ft | 9 kts | 164° |
| 2026-05-07 21:06 | 24.39234 | 124.24509 | 118 ft | 5 kts | 150° |
| 2026-05-07 21:06 | 24.39221 | 124.24508 | 118 ft | 0 kts | 206° |